Grand Chain, Illinois
Current Conditions -  °F | °C
As of 12:55 PM on Monday 20 Oct 2014 (Local Time) from KM30 Reporting Station
Clear Clear  
Wind Chill: 70°   Ceiling: Unl
Heat Index: 70°   Visibility: 10mi
Dew Point: 54°   Wind: 9mph
Humidity: 56%   Direction: 240°WSW
Pressure: 29.98"   Gusts: NA
Location:  37.24°N, 88.89°W
Report Text: KM30 201755Z AUTO 24008KT 10SM CLR 21/12 A2998 RMK AO2 T02110120 10211 20084
Loading
Personal Weather Stations






























Interactive Weather Map
Tropical Storm Tracking
New forecast layout! Learn more

10-Day Weather Forecast

Advertisements
Track Severe Weather on mobile